Time;durP1;ratioP1;P1;durP2;ratioP2;P2;SDS_P1;SDS_P2;PMS_P1;PMS_P2;Temp;Humidity;BMP_temperature;BMP_pressure;BME280_temperature;BME280_humidity;BME280_pressure;Samples;Min_cycle;Max_cycle;Signal;HPM_P1;HPM_P2
2021/09/20 00:07:19;;;;;;;7.50;3.80;;;12.20;99.90;;;;;;20835600;28;20045;-76
2021/09/20 00:17:20;;;;;;;10.13;3.70;;;12.10;99.90;;;;;;20835671;28;20099;-76
2021/09/20 00:27:20;;;;;;;4.63;3.20;;;12.00;99.90;;;;;;20834510;28;20029;-73
2021/09/20 00:37:21;;;;;;;6.93;3.57;;;12.10;99.90;;;;;;20815729;28;20029;-76
2021/09/20 00:47:22;;;;;;;4.03;2.67;;;12.10;99.90;;;;;;20832659;28;20033;-76
2021/09/20 00:57:23;;;;;;;6.33;3.10;;;12.10;99.90;;;;;;20830554;28;20037;-76
2021/09/20 01:07:24;;;;;;;2.90;2.17;;;12.10;99.90;;;;;;20831027;28;20036;-75
2021/09/20 01:17:25;;;;;;;4.17;2.20;;;12.10;99.90;;;;;;20829982;28;20026;-76
2021/09/20 01:27:26;;;;;;;2.10;1.50;;;12.20;99.90;;;;;;20829349;28;20040;-75
2021/09/20 01:37:27;;;;;;;7.50;2.20;;;12.10;99.90;;;;;;20828742;28;20033;-73
2021/09/20 01:47:27;;;;;;;3.60;1.97;;;12.20;99.90;;;;;;20827758;28;20041;-75
2021/09/20 01:57:28;;;;;;;10.10;1.90;;;12.20;99.90;;;;;;20827306;28;20045;-76
2021/09/20 02:07:29;;;;;;;5.27;1.83;;;12.30;99.90;;;;;;20826998;28;20037;-76
2021/09/20 02:17:30;;;;;;;3.63;2.13;;;12.30;99.90;;;;;;20826261;28;20038;-76
2021/09/20 02:27:31;;;;;;;9.60;2.07;;;12.30;99.90;;;;;;20824834;28;20472;-74
2021/09/20 02:37:32;;;;;;;2.73;2.33;;;12.40;99.90;;;;;;20825014;28;20403;-76
2021/09/20 02:47:34;;;;;;;5.33;2.00;;;12.30;99.90;;;;;;20854091;22;20103;-80
2021/09/20 02:57:35;;;;;;;3.10;2.00;;;12.30;99.90;;;;;;20826363;28;20037;-80
2021/09/20 03:07:35;;;;;;;6.80;2.50;;;12.30;99.90;;;;;;20844014;28;20080;-80
2021/09/20 03:17:36;;;;;;;6.77;2.37;;;12.40;99.90;;;;;;20844178;28;20109;-80
2021/09/20 03:27:38;;;;;;;5.27;3.03;;;12.30;99.90;;;;;;20858602;28;20034;-80
2021/09/20 03:37:39;;;;;;;;;;;12.30;99.90;;;;;;20858072;28;20098;-80
2021/09/20 03:47:40;;;;;;;5.88;3.78;;;12.30;99.90;;;;;;20911903;28;19913;-80
2021/09/20 03:57:40;;;;;;;5.60;3.43;;;12.30;99.90;;;;;;20861503;28;20143;-80
2021/09/20 04:07:42;;;;;;;27.53;4.27;;;12.30;99.90;;;;;;20888162;28;20069;-80
2021/09/20 04:17:43;;;;;;;52.03;5.13;;;12.30;99.90;;;;;;20908982;28;20124;-79
2021/09/20 04:27:44;;;;;;;118.17;13.13;;;12.30;99.90;;;;;;20936174;28;20040;-80
2021/09/20 04:37:44;;;;;;;5.20;2.80;;;12.40;99.90;;;;;;20936083;28;20243;-80
2021/09/20 04:47:46;;;;;;;4.47;2.70;;;12.40;99.90;;;;;;20935534;28;20029;-80
2021/09/20 04:57:46;;;;;;;26.30;3.80;;;12.40;99.90;;;;;;20934145;28;20039;-79
2021/09/20 05:07:47;;;;;;;6.77;3.33;;;12.50;99.90;;;;;;20912394;28;20033;-79
2021/09/20 05:17:48;;;;;;;6.13;3.27;;;12.50;99.90;;;;;;20929527;28;20029;-79
2021/09/20 05:27:51;;;;;;;5.77;3.20;;;12.50;99.90;;;;;;20908947;28;20119;-79
2021/09/20 05:37:52;;;;;;;6.30;3.35;;;12.40;99.90;;;;;;20909932;28;20048;-79
2021/09/20 05:47:54;;;;;;;5.73;3.50;;;12.50;99.90;;;;;;20926041;28;20028;-79
2021/09/20 05:57:55;;;;;;;5.97;3.15;;;12.50;99.90;;;;;;20936362;28;20507;-80
2021/09/20 06:07:56;;;;;;;7.80;3.70;;;12.50;99.90;;;;;;20906295;28;20044;-78
2021/09/20 06:17:57;;;;;;;7.83;3.33;;;12.60;99.90;;;;;;20906104;28;20037;-80
2021/09/20 06:27:58;;;;;;;10.47;3.60;;;12.50;99.90;;;;;;20921111;28;20035;-79
2021/09/20 06:37:59;;;;;;;10.83;4.00;;;12.60;99.90;;;;;;20919416;28;20021;-79
2021/09/20 06:48:01;;;;;;;5.33;2.97;;;12.60;99.90;;;;;;20915047;28;20029;-79
2021/09/20 06:58:02;;;;;;;8.82;3.20;;;12.50;99.90;;;;;;20925808;28;20374;-79
2021/09/20 07:08:03;;;;;;;5.35;2.58;;;12.60;99.90;;;;;;20914586;28;20033;-78
2021/09/20 07:18:05;;;;;;;5.90;2.43;;;12.70;99.90;;;;;;20927958;28;20029;-78
2021/09/20 07:28:06;;;;;;;;;;;12.80;99.90;;;;;;20911203;28;20068;-79
2021/09/20 07:38:07;;;;;;;5.43;3.10;;;12.80;99.90;;;;;;20926933;28;20279;-78
2021/09/20 07:48:08;;;;;;;3.73;1.60;;;12.80;99.90;;;;;;20926488;28;20037;-80
2021/09/20 07:58:09;;;;;;;1.10;0.80;;;12.80;99.90;;;;;;20919897;28;20514;-80
2021/09/20 08:08:10;;;;;;;1.87;0.90;;;12.80;99.90;;;;;;20893642;28;20025;-80
2021/09/20 08:18:12;;;;;;;1.83;0.83;;;12.80;99.90;;;;;;20926129;28;20061;-80
2021/09/20 08:28:13;;;;;;;0.63;0.63;;;12.90;99.90;;;;;;20926291;28;20037;-80
2021/09/20 08:38:14;;;;;;;5.87;2.17;;;13.00;99.90;;;;;;20924168;28;20029;-79
2021/09/20 08:48:16;;;;;;;47.30;25.10;;;13.10;99.90;;;;;;20923820;28;20675;-80
2021/09/20 08:58:16;;;;;;;22.13;8.97;;;13.20;99.90;;;;;;20905500;28;20040;-80
2021/09/20 09:08:18;;;;;;;5.47;2.50;;;13.40;99.90;;;;;;20921511;28;20084;-78
2021/09/20 09:18:18;;;;;;;4.80;1.90;;;13.30;99.90;;;;;;20919845;28;20107;-79
2021/09/20 09:28:25;;;;;;;2.13;1.43;;;13.50;99.90;;;;;;20903513;28;20032;-80
2021/09/20 09:38:26;;;;;;;3.10;0.70;;;13.70;99.90;;;;;;20902079;28;20036;-79
2021/09/20 09:48:30;;;;;;;1.10;0.27;;;13.90;99.90;;;;;;20927265;28;20112;-79
2021/09/20 09:58:31;;;;;;;0.10;0.10;;;14.20;99.90;;;;;;20918991;28;20037;-79
2021/09/20 10:08:32;;;;;;;0.23;0.20;;;14.40;99.90;;;;;;20917542;28;20121;-79
2021/09/20 10:18:33;;;;;;;0.87;0.37;;;14.50;99.90;;;;;;20917201;28;20029;-80
2021/09/20 10:28:34;;;;;;;;;;;14.50;99.90;;;;;;20916081;28;20037;-79
2021/09/20 10:38:35;;;;;;;4.13;1.60;;;14.50;99.90;;;;;;20915386;28;19912;-80
2021/09/20 10:49:16;;;;;;;1.10;0.80;;;15.10;99.90;;;;;;20893659;28;20037;-78
2021/09/20 10:59:18;;;;;;;0.50;0.47;;;16.10;99.90;;;;;;20827115;28;20495;-79
2021/09/20 11:09:22;;;;;;;7.50;3.53;;;16.40;99.90;;;;;;20813887;28;20088;-79
2021/09/20 11:19:29;;;;;;;110.93;45.60;;;16.90;99.90;;;;;;20831324;28;20032;-78
2021/09/20 11:29:30;;;;;;;1.35;0.65;;;17.20;99.90;;;;;;20831242;28;20100;-79
2021/09/20 11:39:48;;;;;;;3.25;2.00;;;17.10;99.90;;;;;;20832501;28;20037;-79
2021/09/20 11:49:59;;;;;;;2.38;0.90;;;17.10;99.90;;;;;;20853212;28;20030;-79
2021/09/20 12:00:04;;;;;;;1.52;1.00;;;17.00;99.90;;;;;;20844294;28;20037;-79
2021/09/20 12:10:13;;;;;;;2.53;0.80;;;17.40;99.90;;;;;;20843594;28;20041;-79
2021/09/20 12:20:16;;;;;;;1.52;0.90;;;17.30;99.90;;;;;;20849031;28;20076;-78
2021/09/20 12:30:19;;;;;;;2.25;1.10;;;17.10;99.90;;;;;;20853927;28;20057;-78
2021/09/20 12:40:25;;;;;;;1.65;1.33;;;17.30;99.90;;;;;;20837961;28;20446;-79
2021/09/20 12:50:37;;;;;;;1.50;1.20;;;17.70;99.90;;;;;;20866697;28;20061;-79
2021/09/20 13:00:39;;;;;;;1.40;1.10;;;18.60;99.90;;;;;;20835976;28;20033;-81
2021/09/20 13:10:47;;;;;;;3.47;1.83;;;19.00;99.90;;;;;;20831442;28;20038;-80
2021/09/20 13:20:49;;;;;;;1.77;1.33;;;19.20;99.90;;;;;;20830706;28;20390;-79
2021/09/20 13:30:54;;;;;;;1.02;0.93;;;19.00;99.90;;;;;;20848433;28;20034;-79
2021/09/20 13:40:59;;;;;;;1.88;1.20;;;18.40;99.90;;;;;;20829819;28;20037;-79
2021/09/20 13:51:00;;;;;;;2.58;1.08;;;18.60;99.90;;;;;;20846749;28;20038;-77
2021/09/20 14:01:03;;;;;;;2.63;1.40;;;18.60;99.90;;;;;;20846153;28;20025;-79
2021/09/20 14:11:04;;;;;;;1.98;1.13;;;18.30;99.90;;;;;;20845435;28;20685;-78
2021/09/20 14:21:06;;;;;;;1.20;1.10;;;18.50;99.90;;;;;;20840716;28;20045;-79
2021/09/20 14:31:07;;;;;;;2.57;1.07;;;18.30;99.90;;;;;;20820107;28;20412;-79
2021/09/20 14:41:08;;;;;;;1.47;1.20;;;18.50;99.90;;;;;;20815482;28;20037;-79
2021/09/20 14:51:09;;;;;;;2.83;1.53;;;17.80;99.90;;;;;;20824757;22;20053;-74
2021/09/20 15:01:10;;;;;;;;;;;17.80;99.90;;;;;;20812547;28;20415;-75
2021/09/20 15:11:12;;;;;;;3.30;1.47;;;17.60;99.90;;;;;;20824701;28;19919;-75
2021/09/20 15:21:13;;;;;;;1.90;1.60;;;17.20;99.90;;;;;;20858589;28;20830;-75
2021/09/20 15:31:13;;;;;;;2.07;1.60;;;17.30;99.90;;;;;;20818990;28;20047;-75
2021/09/20 15:41:17;;;;;;;2.23;1.70;;;17.60;99.90;;;;;;20817375;28;20734;-76
2021/09/20 15:51:20;;;;;;;2.60;2.00;;;17.80;99.90;;;;;;20815458;28;20061;-75
2021/09/20 16:01:22;;;;;;;3.17;2.30;;;17.50;99.90;;;;;;20815810;28;20022;-75
2021/09/20 16:11:23;;;;;;;3.13;1.73;;;17.20;99.90;;;;;;20814946;28;20115;-75
2021/09/20 16:21:23;;;;;;;3.57;2.20;;;17.20;99.90;;;;;;20814536;28;20033;-75
2021/09/20 16:31:24;;;;;;;4.13;2.40;;;17.10;99.90;;;;;;20797310;28;20034;-75
2021/09/20 16:41:25;;;;;;;2.83;1.97;;;16.50;99.90;;;;;;20814922;28;20029;-74
2021/09/20 16:51:27;;;;;;;3.93;2.23;;;15.90;99.90;;;;;;20813418;28;20037;-75
2021/09/20 17:01:28;;;;;;;2.45;2.05;;;16.00;99.90;;;;;;20812250;28;20029;-75
2021/09/20 17:11:29;;;;;;;4.73;2.83;;;15.60;99.90;;;;;;20794444;28;20039;-75
2021/09/20 17:21:30;;;;;;;3.00;2.20;;;15.40;99.90;;;;;;20810048;28;20033;-77
2021/09/20 17:31:32;;;;;;;4.13;2.87;;;15.60;99.90;;;;;;20710731;28;20033;-76
2021/09/20 17:41:33;;;;;;;6.30;2.80;;;15.40;99.90;;;;;;20768947;28;20041;-77
2021/09/20 17:51:34;;;;;;;3.67;2.60;;;15.30;99.90;;;;;;20858643;28;20049;-77
2021/09/20 18:01:36;;;;;;;4.33;2.50;;;15.20;99.90;;;;;;20811212;28;20029;-76
2021/09/20 18:11:37;;;;;;;6.25;2.72;;;15.30;99.90;;;;;;20806973;28;20037;-76
2021/09/20 18:21:38;;;;;;;2.50;2.10;;;14.90;99.90;;;;;;20826289;28;20129;-76
2021/09/20 18:31:39;;;;;;;7.37;3.20;;;15.10;99.90;;;;;;20785622;28;20045;-76
2021/09/20 18:41:40;;;;;;;;;;;14.80;99.90;;;;;;20786862;28;20037;-76
2021/09/20 18:51:41;;;;;;;4.82;3.38;;;14.50;99.90;;;;;;20862141;28;19916;-76
2021/09/20 19:01:42;;;;;;;8.00;4.57;;;14.40;99.90;;;;;;20845901;28;20044;-76
2021/09/20 19:11:43;;;;;;;;;;;14.50;99.90;;;;;;20828318;28;20037;-76
2021/09/20 19:21:45;;;;;;;5.97;3.67;;;14.30;99.90;;;;;;20810272;28;19947;-76
2021/09/20 19:31:46;;;;;;;6.15;3.97;;;14.30;99.90;;;;;;20827562;28;20044;-76
2021/09/20 19:41:47;;;;;;;11.53;4.40;;;14.20;99.90;;;;;;20828675;28;20740;-76
2021/09/20 19:51:48;;;;;;;6.27;4.17;;;14.40;99.90;;;;;;20826779;28;20052;-75
2021/09/20 20:01:49;;;;;;;9.37;5.00;;;14.30;99.90;;;;;;20823281;28;20064;-74
2021/09/20 20:11:50;;;;;;;7.23;5.13;;;14.10;99.90;;;;;;20780265;28;20037;-74
2021/09/20 20:21:54;;;;;;;7.63;5.07;;;14.00;99.90;;;;;;20812144;28;20037;-74
2021/09/20 20:31:55;;;;;;;4.90;3.80;;;14.10;99.90;;;;;;20794208;28;20605;-75
2021/09/20 20:41:56;;;;;;;10.67;5.00;;;14.20;99.90;;;;;;20823897;28;20033;-76
2021/09/20 20:51:57;;;;;;;5.27;4.50;;;14.20;99.90;;;;;;20846143;22;20129;-74
2021/09/20 21:01:58;;;;;;;6.60;4.83;;;14.20;99.90;;;;;;20789667;28;20038;-76
2021/09/20 21:11:59;;;;;;;8.40;4.40;;;13.90;99.90;;;;;;20766877;28;20388;-75
2021/09/20 21:22:00;;;;;;;7.43;4.23;;;13.80;99.90;;;;;;20785648;28;20411;-74
2021/09/20 21:32:01;;;;;;;8.17;4.53;;;13.90;99.90;;;;;;20827931;28;20033;-75
2021/09/20 21:42:02;;;;;;;8.93;5.07;;;14.00;99.90;;;;;;20828794;28;20789;-74
2021/09/20 21:52:04;;;;;;;6.27;4.67;;;14.00;99.90;;;;;;20827964;28;20495;-74
2021/09/20 22:02:04;;;;;;;9.40;4.60;;;14.00;99.90;;;;;;20827434;28;20035;-75
2021/09/20 22:12:08;;;;;;;8.73;5.40;;;14.00;99.90;;;;;;20808996;28;20037;-74
2021/09/20 22:22:09;;;;;;;14.85;6.30;;;13.90;99.90;;;;;;20808862;28;20518;-75
2021/09/20 22:32:10;;;;;;;12.77;6.07;;;13.70;99.90;;;;;;20807508;28;20029;-74
2021/09/20 22:42:11;;;;;;;12.77;8.13;;;13.40;99.90;;;;;;20825142;28;20541;-74
2021/09/20 22:52:12;;;;;;;12.93;8.70;;;13.20;99.90;;;;;;20806938;28;20047;-74
2021/09/20 23:02:12;;;;;;;12.37;8.43;;;13.20;99.90;;;;;;20824462;28;20123;-74
2021/09/20 23:12:17;;;;;;;10.73;7.83;;;13.40;99.90;;;;;;20825149;28;20526;-74
2021/09/20 23:22:18;;;;;;;11.38;7.68;;;13.50;99.90;;;;;;20823545;28;20030;-74
2021/09/20 23:32:19;;;;;;;12.13;7.27;;;13.30;99.90;;;;;;20823408;28;20033;-74
2021/09/20 23:42:20;;;;;;;16.30;6.77;;;13.20;99.90;;;;;;20834796;28;20514;-74
2021/09/20 23:52:20;;;;;;;16.77;9.10;;;12.80;99.90;;;;;;20837558;28;20029;-75
